DAL582 KATL-TNCA
Flight info
| Callsign | DAL582 |
|---|---|
| Flight time | N/A |
| Altitude | 35000 |
| Route | VRSTY3 NOKIE YANTI Q89 MANLE Y185 VENDS Y298 KNSLY Y398 JOSES UA315 VESKA VESK2A |
| Aircraft | B738/M-VGDW/C |
Departure
| Time | 2026-05-01 14:22 |
|---|---|
| Airport | Hartsfield Jackson Atlanta International Airport (KATL) |
Arrival
| Time | N/A |
|---|---|
| Airport | Queen Beatrix International Airport (TNCA) |
| Time | Latitude | Longitude | Altitude | Speed | Heading |
|---|---|---|---|---|---|
| 2026-05-01 13:49 | 33.63923 | -84.44190 | 1021 ft | 0 kts | 270° |
| 2026-05-01 14:13 | 33.63923 | -84.44182 | 1021 ft | 2 kts | 270° |
| 2026-05-01 14:14 | 33.63923 | -84.44164 | 1021 ft | 1 kts | 270° |
| 2026-05-01 14:14 | 33.63922 | -84.44151 | 1021 ft | 2 kts | 264° |
| 2026-05-01 14:14 | 33.63927 | -84.44134 | 1020 ft | 2 kts | 235° |
| 2026-05-01 14:14 | 33.63938 | -84.44122 | 1020 ft | 2 kts | 211° |
| 2026-05-01 14:15 | 33.63952 | -84.44115 | 1020 ft | 2 kts | 187° |
| 2026-05-01 14:15 | 33.63959 | -84.44115 | 1020 ft | 1 kts | 175° |
| 2026-05-01 14:15 | 33.63963 | -84.44115 | 1020 ft | 0 kts | 179° |
| 2026-05-01 14:17 | 33.63925 | -84.44114 | 1020 ft | 12 kts | 179° |
| 2026-05-01 14:18 | 33.63833 | -84.44113 | 1020 ft | 12 kts | 179° |
| 2026-05-01 14:18 | 33.63752 | -84.44111 | 1020 ft | 11 kts | 179° |
| 2026-05-01 14:18 | 33.63675 | -84.44138 | 1020 ft | 12 kts | 227° |
| 2026-05-01 14:18 | 33.63630 | -84.44186 | 1021 ft | 13 kts | 209° |
| 2026-05-01 14:19 | 33.63581 | -84.44321 | 1021 ft | 15 kts | 268° |
| 2026-05-01 14:19 | 33.63580 | -84.44456 | 1021 ft | 16 kts | 269° |
| 2026-05-01 14:19 | 33.63580 | -84.44587 | 1021 ft | 14 kts | 270° |
| 2026-05-01 14:19 | 33.63581 | -84.44697 | 1020 ft | 11 kts | 270° |
| 2026-05-01 14:20 | 33.63572 | -84.44753 | 1019 ft | 0 kts | 226° |
| 2026-05-01 14:20 | 33.63555 | -84.44774 | 1018 ft | 3 kts | 217° |
| 2026-05-01 14:20 | 33.63516 | -84.44782 | 1017 ft | 6 kts | 179° |
| 2026-05-01 14:21 | 33.63477 | -84.44772 | 1016 ft | 5 kts | 136° |
| 2026-05-01 14:21 | 33.63472 | -84.44736 | 1018 ft | 3 kts | 86° |
| 2026-05-01 14:21 | 33.63474 | -84.44527 | 1021 ft | 59 kts | 90° |
| 2026-05-01 14:22 | 33.63473 | -84.42443 | 1007 ft | 183 kts | 89° |
| 2026-05-01 14:22 | 33.63448 | -84.40885 | 1592 ft | 193 kts | 92° |
| 2026-05-01 14:22 | 33.63367 | -84.39265 | 2378 ft | 197 kts | 93° |
| 2026-05-01 14:22 | 33.63260 | -84.37542 | 2487 ft | 219 kts | 93° |
| 2026-05-01 14:23 | 33.63139 | -84.35694 | 2774 ft | 225 kts | 93° |
| 2026-05-01 14:23 | 33.62999 | -84.33860 | 3334 ft | 223 kts | 97° |
| 2026-05-01 14:23 | 33.62594 | -84.32143 | 4040 ft | 212 kts | 115° |
| 2026-05-01 14:23 | 33.61714 | -84.30750 | 4580 ft | 223 kts | 138° |
| 2026-05-01 14:24 | 33.60261 | -84.29613 | 4367 ft | 278 kts | 154° |
| 2026-05-01 14:24 | 33.58401 | -84.28683 | 4892 ft | 295 kts | 156° |
| 2026-05-01 14:24 | 33.56534 | -84.27824 | 6034 ft | 287 kts | 167° |
| 2026-05-01 14:24 | 33.54608 | -84.27499 | 7051 ft | 283 kts | 180° |
| 2026-05-01 14:25 | 33.52621 | -84.27490 | 7953 ft | 285 kts | 185° |
| 2026-05-01 14:25 | 33.50661 | -84.27565 | 8758 ft | 289 kts | 186° |
| 2026-05-01 14:25 | 33.48629 | -84.27632 | 9585 ft | 292 kts | 185° |
| 2026-05-01 14:25 | 33.46615 | -84.27668 | 10381 ft | 295 kts | 185° |
| 2026-05-01 14:26 | 33.44544 | -84.27503 | 11192 ft | 300 kts | 178° |
| 2026-05-01 14:26 | 33.40422 | -84.26564 | 12657 ft | 306 kts | 174° |
| 2026-05-01 14:26 | 33.38348 | -84.25832 | 13291 ft | 317 kts | 163° |
| 2026-05-01 14:27 | 33.36425 | -84.24493 | 13917 ft | 329 kts | 150° |
| 2026-05-01 14:27 | 33.34598 | -84.22780 | 14574 ft | 334 kts | 147° |
| 2026-05-01 14:27 | 33.32803 | -84.20982 | 15166 ft | 339 kts | 147° |
| 2026-05-01 14:28 | 33.29126 | -84.17340 | 16149 ft | 350 kts | 148° |
| 2026-05-01 14:28 | 33.27220 | -84.15493 | 16512 ft | 359 kts | 148° |
| 2026-05-01 14:28 | 33.25254 | -84.13605 | 16873 ft | 369 kts | 149° |
| 2026-05-01 14:28 | 33.23223 | -84.11665 | 17190 ft | 380 kts | 149° |
| 2026-05-01 14:29 | 33.21123 | -84.09665 | 17349 ft | 395 kts | 149° |
| 2026-05-01 14:29 | 33.18935 | -84.07582 | 17559 ft | 409 kts | 149° |
| 2026-05-01 14:30 | 33.12071 | -84.01026 | 18714 ft | 430 kts | 148° |
| 2026-05-01 14:30 | 33.09738 | -83.98795 | 19204 ft | 433 kts | 148° |
| 2026-05-01 14:30 | 33.07364 | -83.96546 | 19717 ft | 434 kts | 150° |
| 2026-05-01 14:31 | 33.02496 | -83.92337 | 20711 ft | 435 kts | 153° |
| 2026-05-01 14:31 | 32.99967 | -83.90257 | 21064 ft | 440 kts | 153° |
| 2026-05-01 14:31 | 32.97471 | -83.88218 | 21512 ft | 443 kts | 153° |
| 2026-05-01 14:31 | 32.94912 | -83.86128 | 21907 ft | 447 kts | 153° |
| 2026-05-01 14:32 | 32.92366 | -83.84038 | 22352 ft | 449 kts | 153° |
| 2026-05-01 14:32 | 32.90636 | -83.82612 | 22649 ft | 450 kts | 153° |
| 2026-05-01 14:32 | 32.87214 | -83.79781 | 23259 ft | 451 kts | 153° |
| 2026-05-01 14:32 | 32.85492 | -83.78354 | 23542 ft | 452 kts | 153° |
| 2026-05-01 14:33 | 32.82069 | -83.75510 | 24158 ft | 452 kts | 153° |
| 2026-05-01 14:33 | 32.79472 | -83.73352 | 24536 ft | 455 kts | 153° |
| 2026-05-01 14:33 | 32.76875 | -83.71199 | 24787 ft | 461 kts | 153° |
| 2026-05-01 14:33 | 32.74229 | -83.69006 | 25132 ft | 464 kts | 153° |
| 2026-05-01 14:34 | 32.71592 | -83.66818 | 25589 ft | 464 kts | 153° |
| 2026-05-01 14:34 | 32.68962 | -83.64631 | 26034 ft | 464 kts | 153° |
| 2026-05-01 14:34 | 32.66338 | -83.62408 | 26394 ft | 466 kts | 152° |
| 2026-05-01 14:34 | 32.63730 | -83.60123 | 27002 ft | 462 kts | 152° |
| 2026-05-01 14:35 | 32.61179 | -83.57848 | 27548 ft | 459 kts | 152° |
| 2026-05-01 14:35 | 32.58652 | -83.55584 | 28030 ft | 456 kts | 152° |
| 2026-05-01 14:35 | 32.56141 | -83.53338 | 28499 ft | 453 kts | 152° |
| 2026-05-01 14:35 | 32.53624 | -83.51093 | 28997 ft | 450 kts | 153° |
| 2026-05-01 14:36 | 32.51119 | -83.48869 | 29284 ft | 452 kts | 153° |
| 2026-05-01 14:36 | 32.48595 | -83.46643 | 29548 ft | 454 kts | 153° |
| 2026-05-01 14:36 | 32.46048 | -83.44404 | 29819 ft | 456 kts | 153° |
| 2026-05-01 14:36 | 32.43498 | -83.42164 | 30119 ft | 457 kts | 153° |
| 2026-05-01 14:37 | 32.40953 | -83.39928 | 30484 ft | 456 kts | 153° |
| 2026-05-01 14:37 | 32.38400 | -83.37688 | 30670 ft | 460 kts | 153° |
| 2026-05-01 14:37 | 32.35812 | -83.35421 | 30936 ft | 461 kts | 153° |
| 2026-05-01 14:37 | 32.33263 | -83.33186 | 31285 ft | 460 kts | 153° |
| 2026-05-01 14:38 | 32.30678 | -83.30918 | 31487 ft | 462 kts | 153° |
| 2026-05-01 14:38 | 32.28088 | -83.28655 | 31607 ft | 466 kts | 153° |
| 2026-05-01 14:38 | 32.25470 | -83.26374 | 31685 ft | 471 kts | 153° |
| 2026-05-01 14:38 | 32.22820 | -83.24062 | 32019 ft | 469 kts | 153° |
| 2026-05-01 14:39 | 32.20216 | -83.21787 | 32174 ft | 472 kts | 153° |
| 2026-05-01 14:39 | 32.17553 | -83.19460 | 32466 ft | 471 kts | 153° |
| 2026-05-01 14:39 | 32.14941 | -83.17174 | 32821 ft | 469 kts | 153° |
| 2026-05-01 14:39 | 32.12334 | -83.14892 | 33231 ft | 465 kts | 153° |
| 2026-05-01 14:40 | 32.09741 | -83.12631 | 33356 ft | 468 kts | 152° |
| 2026-05-01 14:40 | 32.04458 | -83.08048 | 33468 ft | 477 kts | 152° |
| 2026-05-01 14:41 | 31.99029 | -83.03347 | 33683 ft | 484 kts | 152° |
| 2026-05-01 14:41 | 31.93575 | -82.98621 | 33869 ft | 491 kts | 152° |
| 2026-05-01 14:41 | 31.90815 | -82.96233 | 33985 ft | 494 kts | 152° |
| 2026-05-01 14:42 | 31.88056 | -82.93844 | 34182 ft | 496 kts | 151° |
| 2026-05-01 14:42 | 31.85276 | -82.91437 | 34357 ft | 497 kts | 152° |
| 2026-05-01 14:42 | 31.82509 | -82.89041 | 34630 ft | 496 kts | 152° |
| 2026-05-01 14:42 | 31.79730 | -82.86633 | 34959 ft | 495 kts | 152° |
| 2026-05-01 14:43 | 31.76960 | -82.84205 | 34971 ft | 498 kts | 151° |
| 2026-05-01 14:43 | 31.71555 | -82.79149 | 34971 ft | 498 kts | 148° |
| 2026-05-01 14:44 | 31.66170 | -82.73956 | 34973 ft | 509 kts | 148° |
| 2026-05-01 14:44 | 31.57852 | -82.65971 | 34973 ft | 519 kts | 148° |
| 2026-05-01 14:45 | 31.49530 | -82.58054 | 34971 ft | 514 kts | 148° |
| 2026-05-01 14:46 | 31.43919 | -82.52760 | 34968 ft | 518 kts | 148° |
| 2026-05-01 14:46 | 31.35525 | -82.44854 | 34969 ft | 520 kts | 148° |
| 2026-05-01 14:47 | 31.29931 | -82.39590 | 34969 ft | 516 kts | 148° |
| 2026-05-01 14:48 | 31.21503 | -82.31689 | 34963 ft | 517 kts | 148° |
| 2026-05-01 14:48 | 31.13135 | -82.23855 | 34961 ft | 514 kts | 148° |
| 2026-05-01 14:49 | 31.01935 | -82.13408 | 34952 ft | 516 kts | 148° |
| 2026-05-01 14:50 | 30.90766 | -82.03016 | 34946 ft | 516 kts | 148° |
| 2026-05-01 14:51 | 30.82348 | -81.95203 | 34943 ft | 515 kts | 148° |
| 2026-05-01 14:52 | 30.73982 | -81.87459 | 34947 ft | 513 kts | 148° |
| 2026-05-01 14:53 | 30.65589 | -81.79709 | 34948 ft | 511 kts | 148° |
| 2026-05-01 14:53 | 30.60036 | -81.74644 | 34960 ft | 510 kts | 149° |
| 2026-05-01 14:54 | 30.54298 | -81.69905 | 34959 ft | 506 kts | 152° |
| 2026-05-01 14:54 | 30.48479 | -81.65332 | 34959 ft | 506 kts | 152° |
| 2026-05-01 14:55 | 30.42634 | -81.60740 | 34960 ft | 506 kts | 152° |
| 2026-05-01 14:55 | 30.36876 | -81.56171 | 34960 ft | 503 kts | 152° |
| 2026-05-01 14:56 | 30.31100 | -81.51558 | 34959 ft | 505 kts | 151° |
| 2026-05-01 14:56 | 30.25338 | -81.46942 | 34957 ft | 503 kts | 151° |
| 2026-05-01 14:57 | 30.19603 | -81.42354 | 34958 ft | 503 kts | 151° |
| 2026-05-01 14:57 | 30.10954 | -81.35445 | 34956 ft | 504 kts | 151° |
| 2026-05-01 14:58 | 30.05248 | -81.30890 | 34957 ft | 498 kts | 152° |
| 2026-05-01 14:58 | 29.99541 | -81.26346 | 34955 ft | 499 kts | 151° |
| 2026-05-01 14:59 | 29.93816 | -81.21800 | 34953 ft | 501 kts | 151° |
| 2026-05-01 14:59 | 29.88076 | -81.17242 | 34950 ft | 498 kts | 151° |
| 2026-05-01 15:00 | 29.79292 | -81.10897 | 34949 ft | 497 kts | 160° |
| 2026-05-01 15:01 | 29.73012 | -81.07700 | 34946 ft | 488 kts | 165° |
| 2026-05-01 15:01 | 29.66697 | -81.04846 | 34946 ft | 490 kts | 165° |
| 2026-05-01 15:02 | 29.60625 | -81.01256 | 34955 ft | 503 kts | 146° |
| 2026-05-01 15:02 | 29.55525 | -80.95591 | 34945 ft | 511 kts | 136° |
| 2026-05-01 15:03 | 29.50889 | -80.89406 | 34950 ft | 512 kts | 134° |
| 2026-05-01 15:03 | 29.46269 | -80.83241 | 34949 ft | 510 kts | 135° |
| 2026-05-01 15:04 | 29.41549 | -80.77194 | 34947 ft | 509 kts | 136° |
| 2026-05-01 15:04 | 29.36751 | -80.71220 | 34949 ft | 509 kts | 136° |
| 2026-05-01 15:05 | 29.31941 | -80.65307 | 34949 ft | 507 kts | 136° |
| 2026-05-01 15:05 | 29.27106 | -80.59391 | 34950 ft | 508 kts | 137° |
| 2026-05-01 15:06 | 29.22288 | -80.53500 | 34953 ft | 508 kts | 136° |
| 2026-05-01 15:06 | 29.17496 | -80.47642 | 34954 ft | 506 kts | 136° |
| 2026-05-01 15:07 | 29.12689 | -80.41768 | 34952 ft | 506 kts | 136° |
| 2026-05-01 15:07 | 29.07881 | -80.35903 | 34945 ft | 506 kts | 136° |
| 2026-05-01 15:08 | 29.03076 | -80.30052 | 34944 ft | 506 kts | 136° |
| 2026-05-01 15:08 | 28.98268 | -80.24206 | 34948 ft | 505 kts | 136° |
| 2026-05-01 15:09 | 28.93453 | -80.18359 | 34946 ft | 505 kts | 136° |
| 2026-05-01 15:09 | 28.88637 | -80.12516 | 34949 ft | 503 kts | 136° |
| 2026-05-01 15:10 | 28.83857 | -80.06722 | 34951 ft | 503 kts | 135° |
| 2026-05-01 15:10 | 28.76902 | -79.97778 | 34999 ft | 506 kts | 133° |
| 2026-05-01 15:11 | 28.74614 | -79.94729 | 35186 ft | 508 kts | 133° |
| 2026-05-01 15:11 | 28.70052 | -79.88635 | 35683 ft | 506 kts | 133° |
| 2026-05-01 15:11 | 28.67752 | -79.85574 | 36004 ft | 505 kts | 133° |
| 2026-05-01 15:12 | 28.65480 | -79.82558 | 36254 ft | 505 kts | 132° |
| 2026-05-01 15:12 | 28.60892 | -79.76501 | 36637 ft | 506 kts | 132° |
| 2026-05-01 15:12 | 28.58619 | -79.73508 | 36813 ft | 505 kts | 133° |
| 2026-05-01 15:13 | 28.51728 | -79.64458 | 36955 ft | 502 kts | 133° |
| 2026-05-01 15:14 | 28.47168 | -79.58482 | 36959 ft | 501 kts | 132° |
| 2026-05-01 15:14 | 28.40309 | -79.49511 | 36963 ft | 501 kts | 132° |
| 2026-05-01 15:15 | 28.31184 | -79.37606 | 36957 ft | 501 kts | 132° |
| 2026-05-01 15:16 | 28.22075 | -79.25760 | 36950 ft | 499 kts | 133° |
| 2026-05-01 15:18 | 28.10689 | -79.10996 | 36954 ft | 497 kts | 132° |
| 2026-05-01 15:19 | 28.01605 | -78.99255 | 36940 ft | 498 kts | 132° |
| 2026-05-01 15:19 | 27.94796 | -78.90475 | 36946 ft | 495 kts | 132° |
| 2026-05-01 15:20 | 27.87985 | -78.81710 | 36947 ft | 494 kts | 132° |
| 2026-05-01 15:21 | 27.83473 | -78.75913 | 36952 ft | 493 kts | 132° |
| 2026-05-01 15:21 | 27.78929 | -78.70083 | 36951 ft | 493 kts | 132° |
| 2026-05-01 15:22 | 27.72150 | -78.61404 | 36955 ft | 493 kts | 132° |
| 2026-05-01 15:22 | 27.67614 | -78.55603 | 36960 ft | 494 kts | 131° |
| 2026-05-01 15:23 | 27.63075 | -78.49807 | 36961 ft | 492 kts | 132° |
| 2026-05-01 15:23 | 27.58563 | -78.44054 | 36961 ft | 491 kts | 132° |
| 2026-05-01 15:24 | 27.54032 | -78.38287 | 36962 ft | 493 kts | 132° |
| 2026-05-01 15:24 | 27.49500 | -78.32525 | 36962 ft | 491 kts | 133° |
| 2026-05-01 15:25 | 27.44955 | -78.26756 | 36965 ft | 490 kts | 132° |
| 2026-05-01 15:25 | 27.40442 | -78.21031 | 36962 ft | 490 kts | 132° |
| 2026-05-01 15:26 | 27.35910 | -78.15362 | 36965 ft | 490 kts | 134° |
| 2026-05-01 15:26 | 27.30834 | -78.10210 | 36965 ft | 489 kts | 145° |
| 2026-05-01 15:27 | 27.25243 | -78.05924 | 36966 ft | 487 kts | 149° |
| 2026-05-01 15:28 | 27.16667 | -77.99824 | 36963 ft | 486 kts | 149° |
| 2026-05-01 15:28 | 27.10983 | -77.95737 | 36967 ft | 487 kts | 149° |
| 2026-05-01 15:29 | 27.02446 | -77.89508 | 36968 ft | 486 kts | 148° |
| 2026-05-01 15:30 | 26.92128 | -77.81916 | 36967 ft | 485 kts | 148° |
| 2026-05-01 15:31 | 26.74276 | -77.68794 | 36969 ft | 484 kts | 148° |
| 2026-05-01 15:32 | 26.63039 | -77.60562 | 36976 ft | 482 kts | 148° |
| 2026-05-01 15:34 | 26.46219 | -77.48279 | 36977 ft | 482 kts | 149° |